createdAt,value
2023-03-20T00:00:17.850Z,47.00
2023-03-20T00:01:17.835Z,43.70
2023-03-20T00:02:17.850Z,45.90
2023-03-20T00:03:17.815Z,44.40
2023-03-20T00:04:17.839Z,46.40
2023-03-20T00:05:17.801Z,43.20
2023-03-20T00:06:17.796Z,47.10
2023-03-20T00:07:17.781Z,45.10
2023-03-20T00:08:17.757Z,47.40
2023-03-20T00:09:17.770Z,44.50
2023-03-20T00:10:17.738Z,45.90
2023-03-20T00:11:17.725Z,46.80
2023-03-20T00:12:17.717Z,45.70
2023-03-20T00:13:17.703Z,49.90
2023-03-20T00:14:17.691Z,49.90
2023-03-20T00:15:17.678Z,48.80
2023-03-20T00:16:17.679Z,45.70
2023-03-20T00:17:17.658Z,46.20
2023-03-20T00:18:17.671Z,45.80
2023-03-20T00:19:17.633Z,51.00
2023-03-20T00:20:17.636Z,45.20
2023-03-20T00:21:17.610Z,45.80
2023-03-20T00:22:17.635Z,44.90
2023-03-20T00:23:17.600Z,42.70
2023-03-20T00:24:17.579Z,45.30
2023-03-20T00:25:17.566Z,46.10
2023-03-20T00:26:17.558Z,43.20
2023-03-20T00:27:17.546Z,45.20
2023-03-20T00:28:17.535Z,48.60
2023-03-20T00:29:17.527Z,47.80
2023-03-20T00:30:17.508Z,45.70
2023-03-20T00:31:17.610Z,47.20
2023-03-20T00:32:17.491Z,48.10
2023-03-20T00:33:17.478Z,49.50
2023-03-20T00:34:17.487Z,52.00
2023-03-20T00:35:17.461Z,50.60
2023-03-20T00:36:17.445Z,47.00
2023-03-20T00:37:17.437Z,45.70
2023-03-20T00:38:17.422Z,49.00
2023-03-20T00:39:17.424Z,46.00
2023-03-20T00:40:17.399Z,48.30
2023-03-20T00:41:17.388Z,49.00
2023-03-20T00:42:17.376Z,46.60
2023-03-20T00:43:17.365Z,47.50
2023-03-20T00:44:17.358Z,49.70
2023-03-20T00:45:17.343Z,46.10
2023-03-20T00:46:17.368Z,54.70
2023-03-20T00:47:17.325Z,53.50
2023-03-20T00:48:17.315Z,49.10
2023-03-20T00:49:17.296Z,44.90
2023-03-20T00:50:17.309Z,44.50
2023-03-20T00:51:17.278Z,47.10
2023-03-20T00:52:17.275Z,44.20
2023-03-20T00:53:17.250Z,44.40
2023-03-20T00:54:17.291Z,40.80
2023-03-20T00:55:17.233Z,43.10
2023-03-20T00:56:17.219Z,38.50
2023-03-20T00:57:17.208Z,42.70
2023-03-20T00:58:17.219Z,40.30
2023-03-20T00:59:17.186Z,40.10
2023-03-20T01:00:17.181Z,41.10
2023-03-20T01:01:17.281Z,36.10
2023-03-20T01:02:17.171Z,40.80
2023-03-20T01:03:17.142Z,39.70
2023-03-20T01:04:17.146Z,42.20
2023-03-20T01:05:17.163Z,41.10
2023-03-20T01:06:17.205Z,45.30
2023-03-20T01:07:17.226Z,48.20
2023-03-20T01:08:17.248Z,44.50
2023-03-20T01:09:17.225Z,46.40
2023-03-20T01:10:17.196Z,45.60
2023-03-20T01:11:17.097Z,50.00
2023-03-20T01:12:17.041Z,49.40
2023-03-20T01:13:17.025Z,53.20
2023-03-20T01:14:17.016Z,49.20
2023-03-20T01:15:17.004Z,51.10
2023-03-20T01:16:17.072Z,45.40
2023-03-20T01:17:16.986Z,54.20
2023-03-20T01:18:16.970Z,48.30
2023-03-20T01:19:17.021Z,52.80
2023-03-20T01:20:16.947Z,51.10
2023-03-20T01:21:16.936Z,47.70
2023-03-20T01:22:16.946Z,49.50
2023-03-20T01:23:16.937Z,49.10
2023-03-20T01:24:16.898Z,48.20
2023-03-20T01:25:16.891Z,40.50
2023-03-20T01:26:16.876Z,38.70
2023-03-20T01:27:16.886Z,42.50
2023-03-20T01:28:16.855Z,44.20
2023-03-20T01:29:16.848Z,46.50
2023-03-20T01:30:16.830Z,46.20
2023-03-20T01:31:16.871Z,46.60
2023-03-20T01:32:16.823Z,43.50
2023-03-20T01:33:16.823Z,43.00
2023-03-20T01:34:16.784Z,43.10
2023-03-20T01:35:16.795Z,47.00
2023-03-20T01:36:16.832Z,46.50
2023-03-20T01:37:16.755Z,44.20
2023-03-20T01:38:16.783Z,40.90
2023-03-20T01:39:16.731Z,39.60
2023-03-20T01:40:16.725Z,35.50
2023-03-20T01:41:16.754Z,34.30
2023-03-20T01:42:16.699Z,35.00
2023-03-20T01:43:16.705Z,31.20
2023-03-20T01:44:16.675Z,27.60
2023-03-20T01:45:16.672Z,24.90
2023-03-20T01:46:16.703Z,23.40
2023-03-20T01:47:16.643Z,25.20
2023-03-20T01:48:16.631Z,22.50
2023-03-20T01:49:16.621Z,23.80
2023-03-20T01:50:16.614Z,25.10
2023-03-20T01:51:16.598Z,23.10
2023-03-20T01:52:16.586Z,21.70
2023-03-20T01:53:16.584Z,22.20
2023-03-20T01:54:16.588Z,25.80
2023-03-20T01:55:16.551Z,18.50
2023-03-20T01:56:16.540Z,24.60
2023-03-20T01:57:16.538Z,20.80
2023-03-20T01:58:16.518Z,23.80
2023-03-20T01:59:16.512Z,22.60
2023-03-20T02:00:16.501Z,19.80
2023-03-20T02:01:16.501Z,22.00
2023-03-20T02:02:16.480Z,21.40
2023-03-20T02:03:16.465Z,23.60
2023-03-20T02:04:16.450Z,21.20
2023-03-20T02:05:16.440Z,21.10
2023-03-20T02:06:16.434Z,21.50
2023-03-20T02:07:16.419Z,21.60
2023-03-20T02:08:16.420Z,22.10
2023-03-20T02:09:16.396Z,19.90
2023-03-20T02:10:16.436Z,18.60
2023-03-20T02:11:16.375Z,19.00
2023-03-20T02:12:16.359Z,23.90
2023-03-20T02:13:16.360Z,15.30
2023-03-20T02:14:16.338Z,19.10
2023-03-20T02:15:16.327Z,21.00
2023-03-20T02:16:16.379Z,19.90
2023-03-20T02:17:16.308Z,22.00
2023-03-20T02:18:16.311Z,21.80
2023-03-20T02:19:16.285Z,21.90
2023-03-20T02:20:16.275Z,26.90
2023-03-20T02:21:16.258Z,21.80
2023-03-20T02:22:16.258Z,21.20
2023-03-20T02:23:16.248Z,23.40
2023-03-20T02:24:16.223Z,22.30
2023-03-20T02:25:16.219Z,22.80
2023-03-20T02:26:16.227Z,22.40
2023-03-20T02:27:16.201Z,19.90
2023-03-20T02:28:16.189Z,21.50
2023-03-20T02:29:16.167Z,23.90
2023-03-20T02:30:16.160Z,19.50
2023-03-20T02:31:16.220Z,20.20
2023-03-20T02:32:16.134Z,20.20
2023-03-20T02:33:16.132Z,18.90
2023-03-20T02:34:16.114Z,20.20
2023-03-20T02:35:16.108Z,20.70
2023-03-20T02:36:16.121Z,21.40
2023-03-20T02:37:16.118Z,19.60
2023-03-20T02:38:16.072Z,19.50
2023-03-20T02:39:16.055Z,22.80
2023-03-20T02:40:16.039Z,18.80
2023-03-20T02:41:16.082Z,19.10
2023-03-20T02:42:16.041Z,19.60
2023-03-20T02:43:16.018Z,19.00
2023-03-20T02:44:16.000Z,18.90
2023-03-20T02:45:15.989Z,19.50
2023-03-20T02:46:16.004Z,18.90
2023-03-20T02:47:15.963Z,18.80
2023-03-20T02:48:15.952Z,19.30
2023-03-20T02:49:15.939Z,17.20
2023-03-20T02:50:15.928Z,17.30
2023-03-20T02:51:15.918Z,17.50
2023-03-20T02:52:15.905Z,15.30
2023-03-20T02:53:15.894Z,16.80
2023-03-20T02:54:15.882Z,17.70
2023-03-20T02:55:15.880Z,17.20
2023-03-20T02:56:15.860Z,15.50
2023-03-20T02:57:15.849Z,15.40
2023-03-20T02:58:15.864Z,16.40
2023-03-20T02:59:15.826Z,14.40
2023-03-20T03:00:15.816Z,15.10
2023-03-20T03:01:15.839Z,15.00
2023-03-20T03:02:15.825Z,18.20
2023-03-20T03:03:15.787Z,15.00
2023-03-20T03:04:15.769Z,15.40
2023-03-20T03:05:15.761Z,15.60
2023-03-20T03:06:15.746Z,16.10
2023-03-20T03:07:15.736Z,14.50
2023-03-20T03:08:15.728Z,15.40
2023-03-20T03:09:17.742Z,14.90
2023-03-20T03:10:15.705Z,15.90
2023-03-20T03:11:15.727Z,16.50
2023-03-20T03:12:15.685Z,15.10
2023-03-20T03:13:15.674Z,15.90
2023-03-20T03:14:15.685Z,15.70
2023-03-20T03:15:15.644Z,16.30
2023-03-20T03:16:15.720Z,15.80
2023-03-20T03:17:15.623Z,15.60
2023-03-20T03:18:15.608Z,16.50
2023-03-20T03:19:15.601Z,14.30
2023-03-20T03:20:15.592Z,14.30
2023-03-20T03:21:15.580Z,13.50
2023-03-20T03:22:15.563Z,15.10
2023-03-20T03:23:15.555Z,15.00
2023-03-20T03:24:15.541Z,15.20
2023-03-20T03:25:15.533Z,14.70
2023-03-20T03:26:15.525Z,15.10
2023-03-20T03:27:15.515Z,14.30
2023-03-20T03:28:15.500Z,13.40
2023-03-20T03:29:15.487Z,14.10
2023-03-20T03:30:15.515Z,14.90
2023-03-20T03:31:15.539Z,15.10
2023-03-20T03:32:15.450Z,13.70
2023-03-20T03:33:15.562Z,15.60
2023-03-20T03:34:15.427Z,13.90
2023-03-20T03:35:15.417Z,14.40
2023-03-20T03:36:15.437Z,14.00
2023-03-20T03:37:15.410Z,14.20
2023-03-20T03:38:15.382Z,14.10
2023-03-20T03:39:15.383Z,14.30
2023-03-20T03:40:15.361Z,12.90
2023-03-20T03:41:15.361Z,13.30
2023-03-20T03:42:15.335Z,13.90
2023-03-20T03:43:15.335Z,13.60
2023-03-20T03:44:15.313Z,15.00
2023-03-20T03:45:15.310Z,13.50
2023-03-20T03:46:15.362Z,13.50
2023-03-20T03:47:15.284Z,13.20
2023-03-20T03:48:15.266Z,12.70
2023-03-20T03:49:15.267Z,13.60
2023-03-20T03:50:15.246Z,12.30
2023-03-20T03:51:15.241Z,12.50
2023-03-20T03:52:15.227Z,13.60
2023-03-20T03:53:15.220Z,16.40
2023-03-20T03:54:15.200Z,11.30
2023-03-20T03:55:15.196Z,12.30
2023-03-20T03:56:15.225Z,12.80
2023-03-20T03:57:15.167Z,14.20
2023-03-20T03:58:15.158Z,13.90
2023-03-20T03:59:15.146Z,14.10
2023-03-20T04:00:15.142Z,12.90
2023-03-20T04:01:15.124Z,11.50
2023-03-20T04:02:15.141Z,12.60
2023-03-20T04:03:15.112Z,12.00
2023-03-20T04:04:15.131Z,13.10
2023-03-20T04:05:15.091Z,13.90
2023-03-20T04:06:15.066Z,11.70
2023-03-20T04:07:15.056Z,13.60
2023-03-20T04:08:15.046Z,14.10
2023-03-20T04:09:15.039Z,13.20
2023-03-20T04:10:15.034Z,13.50
2023-03-20T04:11:15.011Z,13.90
2023-03-20T04:12:15.000Z,11.80
2023-03-20T04:13:14.990Z,12.20
2023-03-20T04:14:14.987Z,12.90
2023-03-20T04:15:14.970Z,13.70
2023-03-20T04:16:15.024Z,13.00
2023-03-20T04:17:14.944Z,13.50
2023-03-20T04:18:14.955Z,13.10
2023-03-20T04:19:14.931Z,13.10
2023-03-20T04:20:14.919Z,14.60
2023-03-20T04:21:14.897Z,13.70
2023-03-20T04:22:14.887Z,13.50
2023-03-20T04:23:14.875Z,15.10
2023-03-20T04:24:14.863Z,13.30
2023-03-20T04:25:14.853Z,15.40
2023-03-20T04:26:14.843Z,13.30
2023-03-20T04:27:14.837Z,13.40
2023-03-20T04:28:14.822Z,14.80
2023-03-20T04:29:14.808Z,13.80
2023-03-20T04:30:14.797Z,13.00
2023-03-20T04:31:14.850Z,12.70
2023-03-20T04:32:14.774Z,14.80
2023-03-20T04:33:14.782Z,14.60
2023-03-20T04:34:14.776Z,15.50
2023-03-20T04:35:14.743Z,16.10
2023-03-20T04:36:14.810Z,14.60
2023-03-20T04:37:14.726Z,13.90
2023-03-20T04:38:14.709Z,13.40
2023-03-20T04:39:14.714Z,14.90
2023-03-20T04:40:14.683Z,14.50
2023-03-20T04:41:14.677Z,12.80
2023-03-20T04:42:14.661Z,15.80
2023-03-20T04:43:14.661Z,12.50
2023-03-20T04:44:14.642Z,15.30
2023-03-20T04:45:14.628Z,14.90
2023-03-20T04:46:14.686Z,15.30
2023-03-20T04:47:14.608Z,12.90
2023-03-20T04:48:14.625Z,15.00
2023-03-20T04:49:14.582Z,14.30
2023-03-20T04:50:14.636Z,15.10
2023-03-20T04:51:14.587Z,13.80
2023-03-20T04:52:14.550Z,14.30
2023-03-20T04:53:14.539Z,14.80
2023-03-20T04:54:14.527Z,14.70
2023-03-20T04:55:14.523Z,15.90
2023-03-20T04:56:14.502Z,15.80
2023-03-20T04:57:14.491Z,15.60
2023-03-20T04:58:14.483Z,14.90
2023-03-20T04:59:14.469Z,15.80
2023-03-20T05:00:14.917Z,15.00
2023-03-20T05:01:14.529Z,15.50
2023-03-20T05:02:14.438Z,18.00
2023-03-20T05:03:14.429Z,16.10
2023-03-20T05:04:14.469Z,15.20
2023-03-20T05:05:14.406Z,16.00
2023-03-20T05:06:14.412Z,14.70
2023-03-20T05:07:14.383Z,15.90
2023-03-20T05:08:14.377Z,15.60
2023-03-20T05:09:14.357Z,16.40
2023-03-20T05:10:14.345Z,17.40
2023-03-20T05:11:14.339Z,15.10
2023-03-20T05:12:14.317Z,15.50
2023-03-20T05:13:14.306Z,17.50
2023-03-20T05:14:14.297Z,17.60
2023-03-20T05:15:14.290Z,16.20
2023-03-20T05:16:14.341Z,16.10
2023-03-20T05:17:14.265Z,15.50
2023-03-20T05:18:14.261Z,15.80
2023-03-20T05:19:14.240Z,17.60
2023-03-20T05:20:14.230Z,16.30
2023-03-20T05:21:14.216Z,17.00
2023-03-20T05:22:14.227Z,16.30
2023-03-20T05:23:14.199Z,16.90
2023-03-20T05:24:14.205Z,15.50
2023-03-20T05:25:14.172Z,16.80
2023-03-20T05:26:14.155Z,20.60
2023-03-20T05:27:14.145Z,15.30
2023-03-20T05:28:14.134Z,16.00
2023-03-20T05:29:14.129Z,18.20
2023-03-20T05:30:14.113Z,17.70
2023-03-20T05:31:14.163Z,17.00
2023-03-20T05:32:14.091Z,16.70
2023-03-20T05:33:14.267Z,17.40
2023-03-20T05:34:14.066Z,17.50
2023-03-20T05:35:14.055Z,16.50
2023-03-20T05:36:14.083Z,18.40
2023-03-20T05:37:14.031Z,16.70
2023-03-20T05:38:14.050Z,16.60
2023-03-20T05:39:14.011Z,18.40
2023-03-20T05:40:13.999Z,18.20
2023-03-20T05:41:13.984Z,17.00
2023-03-20T05:42:13.975Z,16.90
2023-03-20T05:43:13.975Z,18.00
2023-03-20T05:44:13.952Z,18.40
2023-03-20T05:45:13.939Z,16.80
2023-03-20T05:46:13.994Z,15.90
2023-03-20T05:47:13.917Z,18.10
2023-03-20T05:48:13.905Z,15.90
2023-03-20T05:49:13.896Z,17.00
2023-03-20T05:50:13.898Z,17.40
2023-03-20T05:51:13.872Z,16.80
2023-03-20T05:52:13.863Z,16.80
2023-03-20T05:53:13.858Z,17.30
2023-03-20T05:54:13.870Z,18.20
2023-03-20T05:55:13.829Z,16.10
2023-03-20T05:56:13.817Z,20.30
2023-03-20T05:57:13.806Z,17.50
2023-03-20T05:58:13.794Z,17.40
2023-03-20T05:59:13.781Z,15.50
2023-03-20T06:00:13.772Z,16.50
2023-03-20T06:01:13.760Z,15.10
2023-03-20T06:02:13.783Z,16.20
2023-03-20T06:03:13.770Z,17.60
2023-03-20T06:04:13.729Z,15.80
2023-03-20T06:05:13.721Z,15.90
2023-03-20T06:06:13.705Z,15.40
2023-03-20T06:07:13.704Z,17.60
2023-03-20T06:08:13.692Z,15.20
2023-03-20T06:09:13.674Z,18.50
2023-03-20T06:10:13.685Z,17.40
2023-03-20T06:11:13.650Z,21.30
2023-03-20T06:12:13.657Z,18.00
2023-03-20T06:13:13.626Z,15.40
2023-03-20T06:14:13.642Z,15.20
2023-03-20T06:15:13.606Z,16.40
2023-03-20T06:16:13.644Z,16.10
2023-03-20T06:17:13.585Z,17.60
2023-03-20T06:18:13.569Z,16.20
2023-03-20T06:19:13.559Z,14.90
2023-03-20T06:20:13.548Z,14.80
2023-03-20T06:21:13.541Z,16.60
2023-03-20T06:22:13.523Z,15.60
2023-03-20T06:23:13.518Z,13.80
2023-03-20T06:24:13.503Z,14.30
2023-03-20T06:25:13.516Z,16.60
2023-03-20T06:26:13.502Z,15.90
2023-03-20T06:27:13.500Z,14.90
2023-03-20T06:28:13.468Z,16.00
2023-03-20T06:29:13.461Z,17.80
2023-03-20T06:30:13.432Z,16.90
2023-03-20T06:31:13.455Z,19.30
2023-03-20T06:32:13.425Z,17.00
2023-03-20T06:33:13.456Z,14.60
2023-03-20T06:34:13.396Z,16.30
2023-03-20T06:35:13.372Z,16.00
2023-03-20T06:36:13.376Z,13.70
2023-03-20T06:37:13.350Z,15.60
2023-03-20T06:38:13.338Z,14.30
2023-03-20T06:39:13.336Z,16.30
2023-03-20T06:40:13.326Z,16.50
2023-03-20T06:41:18.901Z,17.80
2023-03-20T06:42:16.029Z,15.80
2023-03-20T06:43:13.280Z,14.10
2023-03-20T06:44:13.820Z,17.20
2023-03-20T06:45:13.337Z,13.20
2023-03-20T06:46:13.286Z,15.50
2023-03-20T06:47:13.250Z,21.20
2023-03-20T06:48:13.226Z,18.30
2023-03-20T06:49:13.213Z,15.40
2023-03-20T06:50:13.202Z,16.00
2023-03-20T06:51:13.189Z,17.80
2023-03-20T06:52:13.177Z,15.40
2023-03-20T06:53:13.168Z,14.80
2023-03-20T06:54:13.157Z,17.10
2023-03-20T06:55:13.146Z,15.50
2023-03-20T06:56:13.135Z,17.50
2023-03-20T06:57:15.203Z,15.20
2023-03-20T06:58:13.147Z,14.90
2023-03-20T06:59:13.100Z,15.70
2023-03-20T07:00:13.099Z,16.20
2023-03-20T07:01:13.076Z,17.30
2023-03-20T07:02:13.180Z,17.20
2023-03-20T07:03:13.055Z,16.10
2023-03-20T07:04:13.053Z,19.00
2023-03-20T07:05:13.068Z,19.30
2023-03-20T07:06:13.032Z,19.00
2023-03-20T07:07:13.014Z,13.70
2023-03-20T07:08:13.018Z,17.80
2023-03-20T07:09:12.996Z,16.70
2023-03-20T07:10:12.991Z,15.30
2023-03-20T07:11:12.998Z,14.00
2023-03-20T07:12:12.960Z,21.10
2023-03-20T07:13:12.964Z,18.60
2023-03-20T07:14:13.196Z,16.20
2023-03-20T07:15:13.221Z,16.30
2023-03-20T07:16:12.997Z,17.00
2023-03-20T07:17:12.903Z,16.40
2023-03-20T07:18:12.894Z,13.80
2023-03-20T07:19:12.880Z,17.50
2023-03-20T07:20:12.882Z,16.20
2023-03-20T07:21:12.860Z,17.10
2023-03-20T07:22:12.845Z,15.90
2023-03-20T07:23:12.835Z,16.00
2023-03-20T07:24:12.823Z,15.50
2023-03-20T07:25:12.810Z,16.20
2023-03-20T07:26:12.803Z,17.80
2023-03-20T07:27:12.875Z,17.30
2023-03-20T07:28:12.793Z,16.60
2023-03-20T07:29:12.766Z,16.80
2023-03-20T07:30:12.786Z,18.20
2023-03-20T07:31:12.764Z,16.10
2023-03-20T07:32:12.733Z,16.90
2023-03-20T07:33:12.826Z,17.70
2023-03-20T07:34:12.724Z,16.50
2023-03-20T07:35:12.701Z,16.70
2023-03-20T07:36:12.691Z,16.90
2023-03-20T07:37:12.685Z,17.90
2023-03-20T07:38:12.667Z,18.50
2023-03-20T07:39:12.654Z,17.80
2023-03-20T07:40:12.653Z,18.90
2023-03-20T07:41:12.693Z,16.80
2023-03-20T07:42:12.632Z,15.20
2023-03-20T07:43:12.810Z,17.20
2023-03-20T07:44:12.597Z,15.60
2023-03-20T07:45:12.585Z,15.90
2023-03-20T07:46:12.731Z,16.50
2023-03-20T07:47:12.559Z,16.80
2023-03-20T07:48:12.557Z,15.70
2023-03-20T07:49:12.539Z,17.30
2023-03-20T07:50:12.529Z,17.40
2023-03-20T07:51:12.535Z,15.50
2023-03-20T07:52:12.506Z,17.00
2023-03-20T07:53:12.490Z,14.30
2023-03-20T07:54:12.519Z,18.50
2023-03-20T07:55:12.481Z,17.00
2023-03-20T07:56:12.462Z,26.80
2023-03-20T07:57:12.455Z,15.90
2023-03-20T07:58:12.439Z,15.80
2023-03-20T07:59:12.424Z,14.20
2023-03-20T08:00:12.423Z,15.70
2023-03-20T08:01:12.401Z,16.20
2023-03-20T08:02:12.415Z,14.00
2023-03-20T08:03:12.528Z,14.90
2023-03-20T08:04:12.454Z,15.10
2023-03-20T08:05:12.365Z,15.80
2023-03-20T08:06:12.376Z,14.80
2023-03-20T08:07:12.346Z,15.00
2023-03-20T08:08:12.330Z,14.50
2023-03-20T08:09:12.311Z,14.90
2023-03-20T08:10:12.308Z,13.80
2023-03-20T08:11:12.311Z,14.30
2023-03-20T08:12:12.292Z,14.30
2023-03-20T08:13:12.384Z,14.20
2023-03-20T08:14:12.448Z,15.90
2023-03-20T08:15:12.250Z,14.60
2023-03-20T08:16:12.276Z,16.00
2023-03-20T08:17:15.536Z,15.10
2023-03-20T08:18:12.252Z,12.60
2023-03-20T08:19:12.265Z,13.10
2023-03-20T08:20:12.201Z,12.80
2023-03-20T08:21:12.202Z,13.10
2023-03-20T08:22:12.169Z,13.70
2023-03-20T08:23:12.158Z,17.70
2023-03-20T08:24:12.164Z,13.40
2023-03-20T08:25:12.146Z,15.20
2023-03-20T08:26:12.166Z,13.20
2023-03-20T08:27:12.118Z,15.30
2023-03-20T08:28:12.104Z,13.10
2023-03-20T08:29:12.091Z,14.30
2023-03-20T08:30:12.134Z,16.90
2023-03-20T08:31:12.105Z,12.60
2023-03-20T08:32:12.058Z,13.40
2023-03-20T08:33:12.074Z,14.30
2023-03-20T08:34:12.058Z,11.40
2023-03-20T08:35:25.792Z,13.50
2023-03-20T08:36:13.107Z,15.10
2023-03-20T08:37:12.004Z,11.00
2023-03-20T08:38:12.001Z,14.80
2023-03-20T08:39:12.059Z,14.90
2023-03-20T08:40:12.048Z,12.80
2023-03-20T08:41:12.093Z,17.50
2023-03-20T08:42:12.040Z,13.00
2023-03-20T08:43:12.101Z,15.20
2023-03-20T08:44:12.043Z,12.00
2023-03-20T08:45:12.076Z,11.90
2023-03-20T08:46:12.132Z,13.70
2023-03-20T08:47:12.167Z,11.90
2023-03-20T08:48:11.879Z,13.60
2023-03-20T08:49:11.869Z,11.90
2023-03-20T08:50:11.881Z,11.70
2023-03-20T08:51:11.852Z,13.40
2023-03-20T08:52:11.854Z,12.80
2023-03-20T08:53:11.821Z,14.60
2023-03-20T08:54:11.818Z,15.20
2023-03-20T08:55:11.799Z,14.10
2023-03-20T08:56:11.792Z,13.10
2023-03-20T08:57:11.781Z,14.80
2023-03-20T08:58:11.792Z,13.80
2023-03-20T08:59:11.761Z,13.70
2023-03-20T09:00:11.745Z,12.10
2023-03-20T09:01:11.796Z,12.40
2023-03-20T09:02:11.817Z,11.90
2023-03-20T09:03:11.764Z,13.10
2023-03-20T09:04:11.724Z,13.10
2023-03-20T09:05:11.700Z,11.60
2023-03-20T09:06:11.703Z,16.40
2023-03-20T09:07:11.666Z,10.90
2023-03-20T09:08:11.657Z,12.70
2023-03-20T09:09:11.642Z,12.00
2023-03-20T09:10:11.625Z,12.30
2023-03-20T09:11:11.617Z,12.90
2023-03-20T09:12:11.606Z,12.50
2023-03-20T09:13:26.113Z,9.60
2023-03-20T09:14:12.687Z,11.10
2023-03-20T09:15:11.574Z,12.50
2023-03-20T09:16:13.765Z,13.30
2023-03-20T09:17:11.548Z,11.30
2023-03-20T09:18:11.561Z,13.20
2023-03-20T09:19:11.525Z,11.50
2023-03-20T09:20:11.515Z,12.90
2023-03-20T09:21:11.500Z,11.90
2023-03-20T09:22:11.514Z,11.10
2023-03-20T09:23:11.479Z,11.70
2023-03-20T09:24:11.497Z,12.80
2023-03-20T09:25:11.466Z,12.20
2023-03-20T09:26:11.458Z,12.70
2023-03-20T09:27:11.438Z,11.50
2023-03-20T09:28:11.427Z,11.00
2023-03-20T09:29:11.435Z,12.60
2023-03-20T09:30:11.404Z,11.20
2023-03-20T09:31:11.424Z,11.00
2023-03-20T09:32:11.384Z,12.10
2023-03-20T09:33:11.544Z,10.60
2023-03-20T09:34:11.361Z,13.40
2023-03-20T09:35:11.345Z,9.80
2023-03-20T09:36:11.381Z,13.40
2023-03-20T09:37:11.324Z,11.80
2023-03-20T09:38:11.340Z,10.10
2023-03-20T09:39:11.302Z,13.40
2023-03-20T09:40:11.288Z,12.70
2023-03-20T09:41:11.281Z,11.10
2023-03-20T09:42:11.275Z,10.90
2023-03-20T09:43:11.260Z,10.50
2023-03-20T09:44:11.265Z,11.30
2023-03-20T09:45:11.267Z,10.80
2023-03-20T09:46:11.271Z,11.50
2023-03-20T09:47:19.829Z,9.90
2023-03-20T09:48:11.222Z,11.70
2023-03-20T09:49:11.190Z,9.80
2023-03-20T09:50:11.186Z,11.40
2023-03-20T09:51:11.168Z,11.90
2023-03-20T09:52:11.157Z,11.60
2023-03-20T09:53:11.149Z,10.80
2023-03-20T09:54:11.181Z,14.80
2023-03-20T09:55:11.162Z,10.00
2023-03-20T09:56:11.427Z,11.70
2023-03-20T09:57:11.109Z,9.70
2023-03-20T09:58:11.093Z,11.50
2023-03-20T09:59:11.077Z,11.50
2023-03-20T10:00:11.068Z,10.30
2023-03-20T10:01:11.054Z,13.20
2023-03-20T10:02:11.122Z,13.10
2023-03-20T10:03:11.037Z,9.40
2023-03-20T10:04:11.120Z,11.10
2023-03-20T10:05:11.009Z,10.50
2023-03-20T10:06:10.997Z,10.40
2023-03-20T10:07:10.988Z,10.40
2023-03-20T10:08:10.990Z,10.90
2023-03-20T10:09:10.985Z,10.70
2023-03-20T10:10:10.981Z,17.90
2023-03-20T10:11:10.950Z,15.90
2023-03-20T10:12:10.937Z,10.90
2023-03-20T10:13:10.920Z,10.10
2023-03-20T10:14:10.912Z,10.30
2023-03-20T10:15:10.900Z,12.70
2023-03-20T10:16:10.924Z,12.50
2023-03-20T10:17:10.882Z,11.40
2023-03-20T10:18:10.862Z,11.90
2023-03-20T10:19:10.859Z,10.00
2023-03-20T10:20:10.841Z,10.00
2023-03-20T10:21:10.881Z,11.30
2023-03-20T10:22:10.827Z,10.50
2023-03-20T10:23:10.805Z,12.40
2023-03-20T10:24:10.826Z,11.00
2023-03-20T10:25:10.815Z,11.70
2023-03-20T10:26:10.799Z,10.50
2023-03-20T10:27:10.763Z,9.30
2023-03-20T10:28:10.750Z,13.00
2023-03-20T10:29:10.739Z,12.10
2023-03-20T10:30:10.736Z,10.90
2023-03-20T10:31:10.757Z,13.10
2023-03-20T10:32:10.702Z,11.30
2023-03-20T10:33:10.914Z,12.60
2023-03-20T10:34:10.682Z,9.60
2023-03-20T10:35:11.197Z,11.80
2023-03-20T10:36:10.828Z,12.00
2023-03-20T10:37:10.653Z,14.40
2023-03-20T10:38:10.638Z,10.40
2023-03-20T10:39:10.629Z,10.10
2023-03-20T10:40:10.630Z,10.10
2023-03-20T10:41:10.609Z,15.30
2023-03-20T10:42:10.628Z,10.60
2023-03-20T10:43:10.586Z,10.80
2023-03-20T10:44:10.573Z,10.60
2023-03-20T10:45:10.563Z,9.60
2023-03-20T10:46:10.550Z,12.00
2023-03-20T10:47:10.739Z,8.50
2023-03-20T10:48:10.535Z,9.80
2023-03-20T10:49:10.521Z,12.00
2023-03-20T10:50:10.512Z,9.60
2023-03-20T10:51:10.511Z,12.40
2023-03-20T10:52:10.487Z,9.40
2023-03-20T10:53:10.475Z,14.80
2023-03-20T10:54:10.462Z,10.50
2023-03-20T10:55:10.454Z,10.20
2023-03-20T10:56:10.445Z,11.70
2023-03-20T10:57:10.433Z,11.70
2023-03-20T10:58:10.461Z,10.60
2023-03-20T10:59:10.461Z,11.40
2023-03-20T11:00:10.405Z,7.80
2023-03-20T11:01:10.435Z,10.30
2023-03-20T11:02:10.380Z,10.40
2023-03-20T11:03:10.365Z,10.50
2023-03-20T11:04:10.524Z,10.70
2023-03-20T11:05:10.348Z,9.40
2023-03-20T11:06:10.659Z,10.20
2023-03-20T11:07:11.063Z,9.90
2023-03-20T11:08:10.314Z,9.00
2023-03-20T11:09:10.309Z,11.30
2023-03-20T11:10:10.286Z,9.20
2023-03-20T11:11:10.284Z,12.50
2023-03-20T11:12:10.265Z,8.90
2023-03-20T11:13:10.266Z,10.20
2023-03-20T11:14:10.266Z,10.30
2023-03-20T11:15:10.231Z,9.20
2023-03-20T11:16:10.229Z,9.10
2023-03-20T11:17:10.212Z,10.00
2023-03-20T11:18:10.204Z,8.10
2023-03-20T11:19:10.190Z,9.90
2023-03-20T11:20:10.177Z,10.30
2023-03-20T11:21:10.167Z,11.00
2023-03-20T11:22:10.157Z,9.60
2023-03-20T11:23:10.173Z,9.00
2023-03-20T11:24:11.683Z,8.40
2023-03-20T11:25:10.149Z,10.30
2023-03-20T11:26:10.132Z,9.50
2023-03-20T11:27:10.122Z,10.90
2023-03-20T11:28:10.086Z,9.90
2023-03-20T11:29:10.078Z,10.20
2023-03-20T11:30:10.086Z,9.50
2023-03-20T11:31:10.054Z,10.40
2023-03-20T11:32:10.099Z,9.50
2023-03-20T11:33:10.062Z,9.20
2023-03-20T11:34:10.025Z,7.80
2023-03-20T11:35:10.012Z,10.10
2023-03-20T11:36:10.033Z,9.70
2023-03-20T11:37:11.045Z,9.60
2023-03-20T11:38:09.972Z,10.20
2023-03-20T11:39:09.960Z,9.10
2023-03-20T11:40:09.956Z,8.90
2023-03-20T11:41:09.939Z,8.70
2023-03-20T11:42:09.924Z,9.80
2023-03-20T11:43:09.917Z,9.70
2023-03-20T11:44:09.904Z,8.40
2023-03-20T11:45:09.898Z,9.10
2023-03-20T11:46:09.936Z,10.70
2023-03-20T11:47:09.901Z,9.00
2023-03-20T11:48:09.879Z,7.70
2023-03-20T11:49:09.858Z,10.30
2023-03-20T11:50:09.837Z,9.00
2023-03-20T11:51:09.823Z,10.40
2023-03-20T11:52:09.812Z,10.20
2023-03-20T11:53:09.805Z,10.20
2023-03-20T11:54:09.840Z,9.20
2023-03-20T11:55:09.789Z,9.80
2023-03-20T11:56:09.769Z,11.00
2023-03-20T11:57:09.761Z,15.50
2023-03-20T11:58:09.750Z,10.60
2023-03-20T11:59:09.825Z,12.80
2023-03-20T12:00:09.737Z,10.20
2023-03-20T12:01:09.716Z,9.50
2023-03-20T12:02:09.797Z,10.50
2023-03-20T12:03:09.726Z,9.90
2023-03-20T12:04:09.686Z,11.00
2023-03-20T12:05:11.318Z,9.80
2023-03-20T12:06:09.669Z,11.10
2023-03-20T12:07:09.660Z,9.90
2023-03-20T12:08:09.650Z,12.50
2023-03-20T12:09:09.632Z,10.40
2023-03-20T12:10:09.619Z,8.80
2023-03-20T12:11:09.643Z,11.00
2023-03-20T12:12:09.598Z,10.50
2023-03-20T12:13:09.587Z,10.80
2023-03-20T12:14:09.573Z,9.10
2023-03-20T12:15:09.565Z,10.60
2023-03-20T12:16:09.597Z,11.80
2023-03-20T12:17:09.544Z,11.30
2023-03-20T12:18:09.557Z,10.40
2023-03-20T12:19:09.520Z,10.60
2023-03-20T12:20:09.514Z,13.90
2023-03-20T12:21:09.495Z,10.20
2023-03-20T12:22:09.484Z,11.00
2023-03-20T12:23:09.473Z,13.70
2023-03-20T12:24:09.475Z,13.90
2023-03-20T12:25:09.455Z,10.60
2023-03-20T12:26:09.441Z,11.40
2023-03-20T12:27:09.430Z,11.40
2023-03-20T12:28:09.419Z,12.40
2023-03-20T12:29:09.410Z,10.90
2023-03-20T12:30:09.396Z,12.80
2023-03-20T12:31:09.431Z,9.40
2023-03-20T12:32:09.377Z,10.50
2023-03-20T12:33:09.402Z,11.90
2023-03-20T12:34:09.374Z,10.10
2023-03-20T12:35:09.367Z,11.60
2023-03-20T12:36:09.387Z,11.60
2023-03-20T12:37:09.322Z,11.30
2023-03-20T12:38:09.305Z,10.60
2023-03-20T12:39:09.294Z,11.70
2023-03-20T12:40:09.280Z,12.20
2023-03-20T12:41:09.270Z,14.50
2023-03-20T12:42:09.253Z,10.80
2023-03-20T12:43:09.245Z,12.30
2023-03-20T12:44:09.236Z,11.60
2023-03-20T12:45:09.224Z,10.90
2023-03-20T12:46:09.227Z,11.30
2023-03-20T12:47:09.231Z,11.90
2023-03-20T12:48:09.195Z,11.30
2023-03-20T12:49:09.175Z,10.60
2023-03-20T12:51:09.151Z,10.50
2023-03-20T12:52:09.136Z,12.30
2023-03-20T12:53:09.137Z,11.90
2023-03-20T12:54:09.131Z,10.00
2023-03-20T12:55:09.111Z,11.90